Time;durP1;ratioP1;P1;durP2;ratioP2;P2;SDS_P1;SDS_P2;PMS_P1;PMS_P2;Temp;Humidity;BMP_temperature;BMP_pressure;BME280_temperature;BME280_humidity;BME280_pressure;Samples;Min_cycle;Max_cycle;Signal;HPM_P1;HPM_P2
2023/12/11 00:00:54;;;;;;;12.95;2.60;;;;;;;;;;5085996;28;20402;-58
2023/12/11 00:03:21;;;;;;;14.40;2.78;;;;;;;;;;5065579;28;20487;-51
2023/12/11 00:05:48;;;;;;;11.85;2.55;;;;;;;;;;5075191;28;20403;-60
2023/12/11 00:08:15;;;;;;;21.45;12.27;;;;;;;;;;5088380;28;20394;-61
2023/12/11 00:10:42;;;;;;;36.47;19.65;;;;;;;;;;5089292;28;20475;-50
2023/12/11 00:13:09;;;;;;;29.15;16.33;;;;;;;;;;5089363;28;20394;-51
2023/12/11 00:15:36;;;;;;;21.48;9.95;;;;;;;;;;5091732;28;20887;-52
2023/12/11 00:18:03;;;;;;;25.73;9.15;;;;;;;;;;5093175;28;20382;-55
2023/12/11 00:20:30;;;;;;;26.70;8.40;;;;;;;;;;5092830;28;20948;-57
2023/12/11 00:22:57;;;;;;;25.92;9.15;;;;;;;;;;5092884;28;20398;-59
2023/12/11 00:25:24;;;;;;;31.40;9.95;;;;;;;;;;5092682;28;20406;-48
2023/12/11 00:27:52;;;;;;;25.77;9.48;;;;;;;;;;5092777;28;20981;-49
2023/12/11 00:30:19;;;;;;;28.48;8.73;;;;;;;;;;5092500;28;20381;-50
2023/12/11 00:32:46;;;;;;;24.93;7.13;;;;;;;;;;5092771;28;20409;-46
2023/12/11 00:35:13;;;;;;;26.45;7.15;;;;;;;;;;5092619;28;20428;-46
2023/12/11 00:37:40;;;;;;;24.13;5.80;;;;;;;;;;5084449;28;20414;-48
2023/12/11 00:40:07;;;;;;;20.95;5.18;;;;;;;;;;5081503;28;20474;-58
2023/12/11 00:42:34;;;;;;;18.57;4.60;;;;;;;;;;5091951;28;20488;-50
2023/12/11 00:45:01;;;;;;;19.58;4.63;;;;;;;;;;5092759;28;20409;-47
2023/12/11 00:47:28;;;;;;;21.67;4.13;;;;;;;;;;5092705;28;20484;-47
2023/12/11 00:49:55;;;;;;;21.90;4.03;;;;;;;;;;5091474;28;20963;-49
2023/12/11 00:52:22;;;;;;;24.25;4.45;;;;;;;;;;5091993;28;20751;-46
2023/12/11 00:54:49;;;;;;;17.15;4.53;;;;;;;;;;5091825;28;20801;-46
2023/12/11 00:57:16;;;;;;;17.77;4.90;;;;;;;;;;5092323;28;20428;-52
2023/12/11 00:59:43;;;;;;;20.70;4.85;;;;;;;;;;5091639;28;20417;-52
2023/12/11 01:02:13;;;;;;;16.45;3.63;;;;;;;;;;5091323;28;20899;-57
2023/12/11 01:04:40;;;;;;;13.07;3.30;;;;;;;;;;5073238;28;20425;-49
2023/12/11 01:07:07;;;;;;;15.40;3.45;;;;;;;;;;5090112;28;20405;-48
2023/12/11 01:09:34;;;;;;;11.18;2.90;;;;;;;;;;5061369;28;20412;-50
2023/12/11 01:12:01;;;;;;;12.95;2.83;;;;;;;;;;5085738;28;20401;-49
2023/12/11 01:14:28;;;;;;;11.68;3.00;;;;;;;;;;5091747;28;20408;-49
2023/12/11 01:16:55;;;;;;;15.13;3.80;;;;;;;;;;5091187;28;20458;-48
2023/12/11 01:19:22;;;;;;;19.42;3.67;;;;;;;;;;5091880;28;20825;-47
2023/12/11 01:21:49;;;;;;;15.63;3.80;;;;;;;;;;5091283;28;20401;-50
2023/12/11 01:24:16;;;;;;;14.68;4.20;;;;;;;;;;5081262;28;20389;-49
2023/12/11 01:26:43;;;;;;;14.75;3.22;;;;;;;;;;5090862;28;20409;-48
2023/12/11 01:29:10;;;;;;;13.55;2.83;;;;;;;;;;5091375;28;20386;-48
2023/12/11 01:31:37;;;;;;;13.68;2.88;;;;;;;;;;5091326;28;20420;-48
2023/12/11 01:34:04;;;;;;;17.45;3.28;;;;;;;;;;5079039;28;20467;-51
2023/12/11 01:36:31;;;;;;;15.20;2.42;;;;;;;;;;5091098;28;20435;-48
2023/12/11 01:38:58;;;;;;;12.97;2.50;;;;;;;;;;5077462;28;20426;-47
2023/12/11 01:41:25;;;;;;;9.98;2.65;;;;;;;;;;5091356;28;20424;-50
2023/12/11 01:43:53;;;;;;;12.63;2.75;;;;;;;;;;5091434;28;20963;-49
2023/12/11 01:46:22;;;;;;;12.13;2.40;;;;;;;;;;5091165;28;20455;-53
2023/12/11 01:48:52;;;;;;;12.13;2.80;;;;;;;;;;5091381;28;20509;-49
2023/12/11 01:51:19;;;;;;;8.18;2.63;;;;;;;;;;5091111;28;20534;-45
2023/12/11 01:53:48;;;;;;;7.10;2.88;;;;;;;;;;5091499;28;20410;-47
2023/12/11 01:56:15;;;;;;;12.20;2.90;;;;;;;;;;5099158;28;20415;-50
2023/12/11 01:58:42;;;;;;;8.50;2.47;;;;;;;;;;5083772;28;20419;-50
2023/12/11 02:01:10;;;;;;;9.75;2.42;;;;;;;;;;5100624;28;20914;-46
2023/12/11 02:03:37;;;;;;;11.93;2.43;;;;;;;;;;5099948;28;20404;-47
2023/12/11 02:06:05;;;;;;;6.60;2.20;;;;;;;;;;5096239;28;20399;-51
2023/12/11 02:08:32;;;;;;;7.82;2.45;;;;;;;;;;5099130;28;20444;-55
2023/12/11 02:10:59;;;;;;;13.55;2.22;;;;;;;;;;5101636;28;20491;-58
2023/12/11 02:13:26;;;;;;;8.23;2.10;;;;;;;;;;5099830;28;20914;-46
2023/12/11 02:15:54;;;;;;;8.68;2.20;;;;;;;;;;5100089;28;20415;-49
2023/12/11 02:18:21;;;;;;;7.60;2.30;;;;;;;;;;5101530;28;20753;-52
2023/12/11 02:20:49;;;;;;;7.33;1.70;;;;;;;;;;5100068;28;20428;-51
2023/12/11 02:23:22;;;;;;;9.55;1.95;;;;;;;;;;5099892;28;20759;-56
2023/12/11 02:25:49;;;;;;;7.97;1.50;;;;;;;;;;5098216;28;20386;-48
2023/12/11 02:28:16;;;;;;;10.30;1.42;;;;;;;;;;5099701;28;20400;-50
2023/12/11 02:30:52;;;;;;;10.07;1.67;;;;;;;;;;5095695;28;20454;-51
2023/12/11 02:33:19;;;;;;;9.82;1.77;;;;;;;;;;5090576;28;20406;-49
2023/12/11 02:35:46;;;;;;;8.38;1.48;;;;;;;;;;5090872;28;20775;-49
2023/12/11 02:38:14;;;;;;;6.80;1.35;;;;;;;;;;5090641;28;20393;-48
2023/12/11 02:40:41;;;;;;;7.50;1.50;;;;;;;;;;5090714;28;20527;-48
2023/12/11 02:43:08;;;;;;;7.57;1.30;;;;;;;;;;5090774;28;20746;-50
2023/12/11 02:45:35;;;;;;;6.63;1.30;;;;;;;;;;5090587;28;20451;-48
2023/12/11 02:48:05;;;;;;;6.35;1.25;;;;;;;;;;5090619;28;20463;-48
2023/12/11 02:50:32;;;;;;;11.30;1.60;;;;;;;;;;5090663;28;20394;-53
2023/12/11 02:53:00;;;;;;;9.68;1.42;;;;;;;;;;5090674;28;20452;-55
2023/12/11 02:55:27;;;;;;;9.32;1.15;;;;;;;;;;5090600;28;20474;-51
2023/12/11 02:58:03;;;;;;;8.33;1.17;;;;;;;;;;5090377;28;20373;-50
2023/12/11 03:00:31;;;;;;;7.47;1.10;;;;;;;;;;5090487;28;20417;-52
2023/12/11 03:02:58;;;;;;;11.27;1.20;;;;;;;;;;5090530;28;20481;-56
2023/12/11 03:05:25;;;;;;;5.75;0.82;;;;;;;;;;5090424;28;20390;-53
2023/12/11 03:07:52;;;;;;;9.77;1.17;;;;;;;;;;5090339;28;20389;-54
2023/12/11 03:10:19;;;;;;;8.25;1.00;;;;;;;;;;5090301;28;20469;-58
2023/12/11 03:12:46;;;;;;;7.67;1.20;;;;;;;;;;5090206;28;20394;-48
2023/12/11 03:15:13;;;;;;;8.30;1.10;;;;;;;;;;5090334;28;20751;-48
2023/12/11 03:17:40;;;;;;;7.75;1.08;;;;;;;;;;5090425;28;20406;-51
2023/12/11 03:20:11;;;;;;;6.97;0.90;;;;;;;;;;5090064;28;20409;-49
2023/12/11 03:22:38;;;;;;;5.15;0.90;;;;;;;;;;5090126;28;20390;-48
2023/12/11 03:25:05;;;;;;;4.25;0.80;;;;;;;;;;5090330;28;20382;-48
2023/12/11 03:27:32;;;;;;;4.70;0.80;;;;;;;;;;5090290;28;20382;-45
2023/12/11 03:29:59;;;;;;;8.43;1.25;;;;;;;;;;5089813;28;20390;-53
2023/12/11 03:32:26;;;;;;;6.50;1.08;;;;;;;;;;5090117;28;20417;-50
2023/12/11 03:34:53;;;;;;;7.80;1.00;;;;;;;;;;5089854;28;20772;-49
2023/12/11 03:37:20;;;;;;;10.82;0.93;;;;;;;;;;5071850;28;20765;-51
2023/12/11 03:39:47;;;;;;;6.55;0.90;;;;;;;;;;5089856;28;20929;-51
2023/12/11 03:42:14;;;;;;;7.20;1.10;;;;;;;;;;5090034;28;20382;-48
2023/12/11 03:44:41;;;;;;;9.32;1.20;;;;;;;;;;5090068;28;20744;-49
2023/12/11 03:47:08;;;;;;;8.10;1.17;;;;;;;;;;5090024;28;20386;-54
2023/12/11 03:49:35;;;;;;;6.82;1.00;;;;;;;;;;5090840;28;20392;-50
2023/12/11 03:52:02;;;;;;;7.70;1.10;;;;;;;;;;5093778;28;20414;-49
2023/12/11 03:54:30;;;;;;;9.32;1.10;;;;;;;;;;5093949;28;20412;-49
2023/12/11 03:56:57;;;;;;;6.82;1.02;;;;;;;;;;5093880;28;20378;-50
2023/12/11 03:59:24;;;;;;;7.93;1.10;;;;;;;;;;5093685;28;20409;-47
2023/12/11 04:01:51;;;;;;;8.17;1.00;;;;;;;;;;5093728;28;20374;-51
2023/12/11 04:04:18;;;;;;;8.00;1.10;;;;;;;;;;5093749;28;20528;-47
2023/12/11 04:06:45;;;;;;;7.13;0.70;;;;;;;;;;5093746;28;20374;-45
2023/12/11 04:09:12;;;;;;;10.07;0.87;;;;;;;;;;5093458;28;20385;-46
2023/12/11 04:11:39;;;;;;;6.57;0.80;;;;;;;;;;5093729;28;20968;-45
2023/12/11 04:14:06;;;;;;;3.97;0.70;;;;;;;;;;5093583;28;21204;-46
2023/12/11 04:16:33;;;;;;;6.50;0.82;;;;;;;;;;5075249;28;20382;-48
2023/12/11 04:18:59;;;;;;;6.68;0.98;;;;;;;;;;5093329;28;20489;-49
2023/12/11 04:21:26;;;;;;;6.33;1.00;;;;;;;;;;5093563;28;20378;-50
2023/12/11 04:23:55;;;;;;;8.48;1.40;;;;;;;;;;5093392;28;20449;-53
2023/12/11 04:26:22;;;;;;;7.90;0.98;;;;;;;;;;5093047;28;20381;-55
2023/12/11 04:28:49;;;;;;;8.30;1.20;;;;;;;;;;5093337;28;20374;-51
2023/12/11 04:31:16;;;;;;;6.10;1.00;;;;;;;;;;5093183;28;20389;-51
2023/12/11 04:33:42;;;;;;;10.82;1.10;;;;;;;;;;5093083;28;20892;-49
2023/12/11 04:36:09;;;;;;;13.25;1.30;;;;;;;;;;5093267;28;20398;-45
2023/12/11 04:38:36;;;;;;;8.38;1.17;;;;;;;;;;5093036;28;20401;-50
2023/12/11 04:41:03;;;;;;;5.95;0.90;;;;;;;;;;5093042;28;21204;-50
2023/12/11 04:43:33;;;;;;;12.57;1.10;;;;;;;;;;5093161;28;20424;-49
2023/12/11 04:46:03;;;;;;;5.15;0.90;;;;;;;;;;5092861;28;20378;-46
2023/12/11 04:48:30;;;;;;;7.13;1.10;;;;;;;;;;5092971;28;20370;-45
2023/12/11 04:50:57;;;;;;;8.25;0.80;;;;;;;;;;5092845;28;20405;-49
2023/12/11 04:53:24;;;;;;;8.35;0.90;;;;;;;;;;5092801;28;20402;-47
2023/12/11 04:55:51;;;;;;;4.32;1.00;;;;;;;;;;5092849;28;20448;-47
2023/12/11 04:58:20;;;;;;;3.78;0.88;;;;;;;;;;5092572;28;20370;-47
2023/12/11 05:00:47;;;;;;;5.60;0.90;;;;;;;;;;5091724;28;20875;-48
2023/12/11 05:03:14;;;;;;;2.88;0.80;;;;;;;;;;5092417;28;20801;-46
2023/12/11 05:05:41;;;;;;;8.43;0.80;;;;;;;;;;5092318;28;20371;-47
2023/12/11 05:08:07;;;;;;;5.78;1.00;;;;;;;;;;5092455;28;20738;-46
2023/12/11 05:10:34;;;;;;;5.15;0.95;;;;;;;;;;5092482;28;20397;-47
2023/12/11 05:13:01;;;;;;;5.10;0.98;;;;;;;;;;5074393;28;20478;-48
2023/12/11 05:15:28;;;;;;;6.65;1.00;;;;;;;;;;5092355;28;20396;-46
2023/12/11 05:17:55;;;;;;;4.10;0.80;;;;;;;;;;5092378;28;20382;-47
2023/12/11 05:20:22;;;;;;;6.07;0.80;;;;;;;;;;5092321;28;20405;-45
2023/12/11 05:22:49;;;;;;;9.85;0.70;;;;;;;;;;5092188;28;20457;-46
2023/12/11 05:25:16;;;;;;;5.88;0.90;;;;;;;;;;5092250;28;20393;-48
2023/12/11 05:27:43;;;;;;;9.27;0.90;;;;;;;;;;5092304;28;20416;-44
2023/12/11 05:30:10;;;;;;;6.30;0.77;;;;;;;;;;5091991;28;20385;-46
2023/12/11 05:32:38;;;;;;;8.57;0.90;;;;;;;;;;5092019;28;20398;-48
2023/12/11 05:35:06;;;;;;;5.43;0.90;;;;;;;;;;5092160;28;20889;-45
2023/12/11 05:37:33;;;;;;;7.50;0.90;;;;;;;;;;5092033;28;20370;-50
2023/12/11 05:40:01;;;;;;;4.05;0.60;;;;;;;;;;5091864;28;20402;-46
2023/12/11 05:42:27;;;;;;;4.97;0.80;;;;;;;;;;5091901;28;20363;-44
2023/12/11 05:44:54;;;;;;;5.38;0.80;;;;;;;;;;5091953;28;20374;-44
2023/12/11 05:47:21;;;;;;;5.63;1.02;;;;;;;;;;5091860;28;20370;-46
2023/12/11 05:49:48;;;;;;;5.90;0.90;;;;;;;;;;5091754;28;20378;-46
2023/12/11 05:52:15;;;;;;;15.00;1.10;;;;;;;;;;5091752;28;20366;-49
2023/12/11 05:54:43;;;;;;;9.18;1.10;;;;;;;;;;5091762;28;20370;-47
2023/12/11 05:57:10;;;;;;;11.30;1.10;;;;;;;;;;5091678;28;20766;-48
2023/12/11 05:59:36;;;;;;;13.07;1.42;;;;;;;;;;5091530;28;20903;-47
2023/12/11 06:02:04;;;;;;;12.15;1.25;;;;;;;;;;5089917;28;20798;-45
2023/12/11 06:04:31;;;;;;;12.32;1.52;;;;;;;;;;5091664;28;20374;-44
2023/12/11 06:06:58;;;;;;;18.03;1.57;;;;;;;;;;5091528;28;20487;-43
2023/12/11 06:09:25;;;;;;;23.27;1.80;;;;;;;;;;5091559;28;20469;-46
2023/12/11 06:11:52;;;;;;;23.42;2.55;;;;;;;;;;5091503;28;20786;-44
2023/12/11 06:14:19;;;;;;;16.95;1.60;;;;;;;;;;5091343;28;20358;-44
2023/12/11 06:16:46;;;;;;;20.75;1.50;;;;;;;;;;5091421;28;20449;-44
2023/12/11 06:19:13;;;;;;;22.92;1.50;;;;;;;;;;5091059;28;20445;-45
2023/12/11 06:21:40;;;;;;;17.23;1.70;;;;;;;;;;5091231;28;20431;-44
2023/12/11 06:24:08;;;;;;;18.23;1.60;;;;;;;;;;5091050;28;21227;-45
2023/12/11 06:26:35;;;;;;;14.75;1.13;;;;;;;;;;5091129;28;20423;-46
2023/12/11 06:29:02;;;;;;;10.82;1.50;;;;;;;;;;5091127;28;20382;-46
2023/12/11 06:31:30;;;;;;;17.92;1.40;;;;;;;;;;5091017;28;20405;-46
2023/12/11 06:33:57;;;;;;;21.95;1.58;;;;;;;;;;5090848;28;20807;-46
2023/12/11 06:36:25;;;;;;;27.15;2.03;;;;;;;;;;5091003;28;20434;-45
2023/12/11 06:38:53;;;;;;;20.13;1.58;;;;;;;;;;5090442;28;20930;-46
2023/12/11 06:41:20;;;;;;;16.23;1.60;;;;;;;;;;5090918;28;20385;-46
2023/12/11 06:43:50;;;;;;;19.27;1.83;;;;;;;;;;5090962;28;20370;-45
2023/12/11 06:46:17;;;;;;;19.07;2.00;;;;;;;;;;5090867;28;20370;-45
2023/12/11 06:48:44;;;;;;;30.05;2.03;;;;;;;;;;5090924;28;20370;-47
2023/12/11 06:51:11;;;;;;;22.75;2.00;;;;;;;;;;5090898;28;20374;-45
2023/12/11 06:53:38;;;;;;;18.30;1.50;;;;;;;;;;5090699;28;20373;-46
2023/12/11 06:56:08;;;;;;;13.98;1.40;;;;;;;;;;5076775;28;20379;-45
2023/12/11 06:58:35;;;;;;;15.55;1.45;;;;;;;;;;5070653;28;20851;-45
2023/12/11 07:01:03;;;;;;;28.00;1.88;;;;;;;;;;5070215;28;20872;-47
2023/12/11 07:03:30;;;;;;;25.35;1.92;;;;;;;;;;5070508;28;20380;-46
2023/12/11 07:05:57;;;;;;;39.75;3.00;;;;;;;;;;5070509;28;20378;-46
2023/12/11 07:08:24;;;;;;;27.35;2.28;;;;;;;;;;5070381;28;20383;-45
2023/12/11 07:10:51;;;;;;;30.73;2.25;;;;;;;;;;5070101;28;20741;-45
2023/12/11 07:13:18;;;;;;;32.85;2.83;;;;;;;;;;5070121;28;20463;-45
2023/12/11 07:15:45;;;;;;;21.48;2.10;;;;;;;;;;5070338;28;20368;-45
2023/12/11 07:18:13;;;;;;;27.52;1.90;;;;;;;;;;5070293;28;20371;-46
2023/12/11 07:20:43;;;;;;;24.75;2.08;;;;;;;;;;5069976;28;20407;-45
2023/12/11 07:23:10;;;;;;;37.63;2.40;;;;;;;;;;5070181;28;20368;-45
2023/12/11 07:25:37;;;;;;;18.63;1.60;;;;;;;;;;5072854;28;20398;-49
2023/12/11 07:28:04;;;;;;;21.30;1.65;;;;;;;;;;5074339;28;20394;-45
2023/12/11 07:30:32;;;;;;;14.05;1.40;;;;;;;;;;5074027;28;20379;-46
2023/12/11 07:32:59;;;;;;;18.67;2.10;;;;;;;;;;5073907;28;20416;-48
2023/12/11 07:35:26;;;;;;;14.70;1.48;;;;;;;;;;5074144;28;20374;-45
2023/12/11 07:37:53;;;;;;;22.05;2.10;;;;;;;;;;5074169;28;20408;-45
2023/12/11 07:40:20;;;;;;;26.92;2.30;;;;;;;;;;5073927;28;20490;-50
2023/12/11 07:42:47;;;;;;;12.75;1.58;;;;;;;;;;5073994;28;20390;-47
2023/12/11 07:45:14;;;;;;;8.33;1.30;;;;;;;;;;5074018;28;20403;-45
2023/12/11 07:47:41;;;;;;;16.97;1.43;;;;;;;;;;5073931;28;20379;-47
2023/12/11 07:50:09;;;;;;;17.52;1.38;;;;;;;;;;5073793;28;20383;-45
2023/12/11 07:52:36;;;;;;;13.02;1.50;;;;;;;;;;5073657;28;21237;-46
2023/12/11 07:55:03;;;;;;;14.63;1.50;;;;;;;;;;5073809;28;20404;-47
2023/12/11 07:57:30;;;;;;;10.93;1.17;;;;;;;;;;5073815;28;20432;-45
2023/12/11 07:59:57;;;;;;;7.78;1.30;;;;;;;;;;5073452;28;20396;-45
2023/12/11 08:02:24;;;;;;;14.07;1.40;;;;;;;;;;5073534;28;20380;-47
2023/12/11 08:04:51;;;;;;;9.85;1.20;;;;;;;;;;5073656;28;20853;-46
2023/12/11 08:07:18;;;;;;;15.93;1.33;;;;;;;;;;5073569;28;20459;-46
2023/12/11 08:09:45;;;;;;;10.20;1.33;;;;;;;;;;5073282;28;20371;-48
2023/12/11 08:12:12;;;;;;;15.93;1.55;;;;;;;;;;5073517;28;20386;-47
2023/12/11 08:14:39;;;;;;;10.27;1.30;;;;;;;;;;5073392;28;20425;-45
2023/12/11 08:17:06;;;;;;;14.63;1.58;;;;;;;;;;5073220;28;20893;-45
2023/12/11 08:19:33;;;;;;;10.70;1.27;;;;;;;;;;5072904;28;20415;-45
2023/12/11 08:22:01;;;;;;;9.00;1.38;;;;;;;;;;5073327;28;20372;-45
2023/12/11 08:24:28;;;;;;;9.98;1.17;;;;;;;;;;5073194;28;20375;-48
2023/12/11 08:26:55;;;;;;;7.33;1.10;;;;;;;;;;5073072;28;20372;-45
2023/12/11 08:29:22;;;;;;;15.65;1.38;;;;;;;;;;5055026;28;20777;-46
2023/12/11 08:31:49;;;;;;;15.40;1.50;;;;;;;;;;5072923;28;20394;-45
2023/12/11 08:34:17;;;;;;;25.27;2.17;;;;;;;;;;5073026;28;20853;-46
2023/12/11 08:36:44;;;;;;;25.42;2.05;;;;;;;;;;5072826;28;20400;-45
2023/12/11 08:39:11;;;;;;;26.77;2.20;;;;;;;;;;5072945;28;20400;-47
2023/12/11 08:41:37;;;;;;;29.85;2.35;;;;;;;;;;5072965;28;20383;-46
2023/12/11 08:44:04;;;;;;;19.38;1.90;;;;;;;;;;5072924;28;20404;-46
2023/12/11 08:46:31;;;;;;;23.73;2.10;;;;;;;;;;5072846;28;20384;-45
2023/12/11 08:48:58;;;;;;;16.13;1.40;;;;;;;;;;5072691;28;20468;-45
2023/12/11 08:51:25;;;;;;;15.20;1.70;;;;;;;;;;5072767;28;20376;-45
2023/12/11 08:53:52;;;;;;;18.70;1.77;;;;;;;;;;5072789;28;20392;-46
2023/12/11 08:56:23;;;;;;;18.50;2.00;;;;;;;;;;5072691;28;20851;-46
2023/12/11 08:58:51;;;;;;;19.13;1.60;;;;;;;;;;5072170;28;20454;-45
2023/12/11 09:01:18;;;;;;;17.00;1.90;;;;;;;;;;5072480;28;20913;-45
2023/12/11 09:03:46;;;;;;;13.55;1.48;;;;;;;;;;5072509;28;20375;-46
2023/12/11 09:06:13;;;;;;;11.88;1.67;;;;;;;;;;5072288;28;20384;-45
2023/12/11 09:08:40;;;;;;;9.88;1.48;;;;;;;;;;5072300;28;20379;-46
2023/12/11 09:11:08;;;;;;;14.27;1.52;;;;;;;;;;5072374;28;20917;-48
2023/12/11 09:13:35;;;;;;;8.73;1.38;;;;;;;;;;5072037;28;20391;-45
2023/12/11 09:16:03;;;;;;;8.27;1.17;;;;;;;;;;5072318;28;20849;-45
2023/12/11 09:18:30;;;;;;;16.58;1.50;;;;;;;;;;5071880;28;20376;-45
2023/12/11 09:20:57;;;;;;;10.25;1.52;;;;;;;;;;5071989;28;20407;-47
2023/12/11 09:23:24;;;;;;;10.23;1.30;;;;;;;;;;5071895;28;20380;-46
2023/12/11 09:25:51;;;;;;;13.57;1.90;;;;;;;;;;5072217;28;20375;-48
2023/12/11 09:28:18;;;;;;;17.27;2.15;;;;;;;;;;5072057;28;20372;-46
2023/12/11 09:30:45;;;;;;;21.70;2.17;;;;;;;;;;5071940;28;20841;-45
2023/12/11 09:33:12;;;;;;;11.75;1.70;;;;;;;;;;5071675;28;20419;-45
2023/12/11 09:35:41;;;;;;;14.23;1.55;;;;;;;;;;5071801;28;20368;-47
2023/12/11 09:38:08;;;;;;;15.33;1.80;;;;;;;;;;5071722;28;20849;-45
2023/12/11 09:40:36;;;;;;;16.50;1.90;;;;;;;;;;5071689;28;20461;-49
2023/12/11 09:43:03;;;;;;;15.45;1.90;;;;;;;;;;5053774;28;20399;-45
2023/12/11 09:45:31;;;;;;;16.33;1.83;;;;;;;;;;5071756;28;21024;-45
2023/12/11 09:47:59;;;;;;;17.58;1.88;;;;;;;;;;5070990;28;20371;-46
2023/12/11 09:50:26;;;;;;;20.55;2.60;;;;;;;;;;5071465;28;20372;-46
2023/12/11 09:52:53;;;;;;;15.57;1.95;;;;;;;;;;5071554;28;20376;-45
2023/12/11 09:55:20;;;;;;;12.57;1.80;;;;;;;;;;5071510;28;20459;-45
2023/12/11 09:57:48;;;;;;;13.82;2.05;;;;;;;;;;5071479;28;20707;-45
2023/12/11 10:00:15;;;;;;;8.90;1.50;;;;;;;;;;5071192;28;20414;-45
2023/12/11 10:02:42;;;;;;;22.23;2.45;;;;;;;;;;5071383;28;21157;-45
2023/12/11 10:05:10;;;;;;;23.15;2.40;;;;;;;;;;5071257;28;20371;-45
2023/12/11 10:07:38;;;;;;;19.45;2.03;;;;;;;;;;5071284;28;20485;-45
2023/12/11 10:10:17;;;;;;;17.70;2.20;;;;;;;;;;5070964;28;20380;-46
2023/12/11 10:12:44;;;;;;;14.80;2.10;;;;;;;;;;5071156;28;20753;-45
2023/12/11 10:15:11;;;;;;;21.47;2.53;;;;;;;;;;5071148;28;20943;-46
2023/12/11 10:17:38;;;;;;;21.73;2.30;;;;;;;;;;5071010;28;20403;-47
2023/12/11 10:20:15;;;;;;;34.97;3.00;;;;;;;;;;5070926;28;20418;-46
2023/12/11 10:22:42;;;;;;;20.42;2.00;;;;;;;;;;5070921;28;20368;-45
2023/12/11 10:25:09;;;;;;;31.55;2.65;;;;;;;;;;5070819;28;20375;-45
2023/12/11 10:27:36;;;;;;;19.50;2.10;;;;;;;;;;5070991;28;20875;-45
2023/12/11 10:30:14;;;;;;;19.10;2.20;;;;;;;;;;5070823;28;20368;-46
2023/12/11 10:32:41;;;;;;;19.00;2.00;;;;;;;;;;5070437;28;20411;-45
2023/12/11 10:35:09;;;;;;;25.95;2.90;;;;;;;;;;5070855;28;20364;-45
2023/12/11 10:37:36;;;;;;;19.97;2.17;;;;;;;;;;5070534;28;20406;-45
2023/12/11 10:40:03;;;;;;;22.30;2.50;;;;;;;;;;5070515;28;20407;-45
2023/12/11 10:42:30;;;;;;;22.35;2.45;;;;;;;;;;5070322;28;20387;-46
2023/12/11 10:44:57;;;;;;;23.90;2.38;;;;;;;;;;5070255;28;20980;-46
2023/12/11 10:47:24;;;;;;;20.90;2.50;;;;;;;;;;5070523;28;20383;-45
2023/12/11 10:49:51;;;;;;;25.33;2.72;;;;;;;;;;5070596;28;20870;-45
2023/12/11 10:52:18;;;;;;;40.28;3.35;;;;;;;;;;5069664;28;20391;-42
2023/12/11 10:54:45;;;;;;;33.92;2.80;;;;;;;;;;5070514;28;20367;-44
2023/12/11 10:57:13;;;;;;;25.92;2.55;;;;;;;;;;5070296;28;20395;-43
2023/12/11 10:59:41;;;;;;;26.80;2.67;;;;;;;;;;5068497;28;20826;-43
2023/12/11 11:02:09;;;;;;;22.65;2.35;;;;;;;;;;5069805;28;21177;-43
2023/12/11 11:04:39;;;;;;;18.58;2.35;;;;;;;;;;5069724;28;20865;-43
2023/12/11 11:07:20;;;;;;;17.83;2.17;;;;;;;;;;5069740;28;20934;-44
2023/12/11 11:10:05;;;;;;;17.95;2.35;;;;;;;;;;5067852;28;20501;-44
2023/12/11 11:12:35;;;;;;;18.70;2.13;;;;;;;;;;5068583;28;20388;-43
2023/12/11 11:15:02;;;;;;;16.17;2.23;;;;;;;;;;5067069;28;20390;-43
2023/12/11 11:17:47;;;;;;;15.98;2.25;;;;;;;;;;5069614;28;20478;-44
2023/12/11 11:20:15;;;;;;;13.90;1.92;;;;;;;;;;5062629;28;20936;-41
2023/12/11 11:22:42;;;;;;;20.42;2.33;;;;;;;;;;5069196;28;20900;-40
2023/12/11 11:25:27;;;;;;;15.45;2.30;;;;;;;;;;5069821;28;20360;-39
2023/12/11 11:27:54;;;;;;;19.88;2.55;;;;;;;;;;5070053;28;20420;-39
2023/12/11 11:30:40;;;;;;;17.45;2.60;;;;;;;;;;5067862;28;20804;-38
2023/12/11 11:33:09;;;;;;;20.02;2.45;;;;;;;;;;5069956;28;20407;-40
2023/12/11 11:35:46;;;;;;;14.27;2.40;;;;;;;;;;5052504;28;20401;-41
2023/12/11 11:38:13;;;;;;;17.02;2.35;;;;;;;;;;5069743;28;20395;-42
2023/12/11 11:40:43;;;;;;;13.23;2.10;;;;;;;;;;5067080;28;20449;-41
2023/12/11 11:43:10;;;;;;;17.40;2.50;;;;;;;;;;5070058;28;20853;-41
2023/12/11 11:45:37;;;;;;;18.55;2.47;;;;;;;;;;5069943;28;20861;-39
2023/12/11 11:48:04;;;;;;;21.02;2.80;;;;;;;;;;5069937;28;20433;-44
2023/12/11 11:50:31;;;;;;;22.00;2.93;;;;;;;;;;5067845;28;20436;-43
2023/12/11 11:53:01;;;;;;;28.83;3.17;;;;;;;;;;5068235;28;20402;-43
2023/12/11 11:55:28;;;;;;;32.50;3.20;;;;;;;;;;5069495;28;20754;-41
2023/12/11 11:57:56;;;;;;;31.80;3.53;;;;;;;;;;5068206;28;20488;-41
2023/12/11 12:00:23;;;;;;;34.10;3.70;;;;;;;;;;5067306;28;20777;-43
2023/12/11 12:02:57;;;;;;;45.80;4.40;;;;;;;;;;5048929;28;20385;-41
2023/12/11 12:05:24;;;;;;;58.70;4.65;;;;;;;;;;5060134;28;20946;-42
2023/12/11 12:07:51;;;;;;;39.73;4.30;;;;;;;;;;5069500;28;21117;-42
2023/12/11 12:10:18;;;;;;;45.08;4.57;;;;;;;;;;5069389;28;20533;-41
2023/12/11 12:12:50;;;;;;;43.53;5.00;;;;;;;;;;5071603;28;20380;-40
2023/12/11 12:15:19;;;;;;;39.42;4.50;;;;;;;;;;5073157;28;20776;-41
2023/12/11 12:17:46;;;;;;;44.38;5.22;;;;;;;;;;5072861;28;20402;-41
2023/12/11 12:20:14;;;;;;;49.03;4.97;;;;;;;;;;5072410;28;20419;-42
2023/12/11 12:23:00;;;;;;;59.13;5.82;;;;;;;;;;5053623;28;20467;-42
2023/12/11 12:25:27;;;;;;;71.63;6.33;;;;;;;;;;5072955;28;20388;-43
2023/12/11 12:27:56;;;;;;;56.60;5.95;;;;;;;;;;5073035;28;20383;-42
2023/12/11 12:30:23;;;;;;;60.63;6.30;;;;;;;;;;5072415;28;20368;-43
2023/12/11 12:32:52;;;;;;;59.97;5.93;;;;;;;;;;5071154;28;20407;-42
2023/12/11 12:35:19;;;;;;;75.30;6.32;;;;;;;;;;5072815;28;20457;-40
2023/12/11 12:37:47;;;;;;;67.88;6.00;;;;;;;;;;5072853;28;20383;-40
2023/12/11 12:40:16;;;;;;;64.22;6.47;;;;;;;;;;5071816;28;20407;-40
2023/12/11 12:42:43;;;;;;;57.90;6.50;;;;;;;;;;5072461;28;20384;-42
2023/12/11 12:45:10;;;;;;;59.30;6.05;;;;;;;;;;5071003;28;20773;-41
2023/12/11 12:47:50;;;;;;;64.97;6.47;;;;;;;;;;5071605;28;20865;-41
2023/12/11 12:50:35;;;;;;;81.78;6.32;;;;;;;;;;5072206;28;20371;-41
2023/12/11 12:53:05;;;;;;;79.65;7.03;;;;;;;;;;5072658;28;20390;-41
2023/12/11 12:55:33;;;;;;;82.38;7.55;;;;;;;;;;5070849;28;20918;-41
2023/12/11 12:58:00;;;;;;;85.25;7.43;;;;;;;;;;5054174;28;20878;-41
2023/12/11 13:00:27;;;;;;;75.85;7.10;;;;;;;;;;5071682;28;20415;-41
2023/12/11 13:02:54;;;;;;;88.60;6.93;;;;;;;;;;5072125;28;20396;-41
2023/12/11 13:05:21;;;;;;;83.20;7.70;;;;;;;;;;5070891;28;20375;-41
2023/12/11 13:08:02;;;;;;;77.37;7.40;;;;;;;;;;5072061;28;20380;-41
2023/12/11 13:10:29;;;;;;;79.67;7.03;;;;;;;;;;5071636;28;20391;-41
2023/12/11 13:12:56;;;;;;;72.13;7.70;;;;;;;;;;5072050;28;20421;-41
2023/12/11 13:15:23;;;;;;;101.93;8.52;;;;;;;;;;5072161;28;20395;-41
2023/12/11 13:17:52;;;;;;;99.47;9.10;;;;;;;;;;5072149;28;20379;-41
2023/12/11 13:20:19;;;;;;;107.60;9.10;;;;;;;;;;5072001;28;20412;-41
2023/12/11 13:22:47;;;;;;;101.20;9.73;;;;;;;;;;5071157;28;20853;-41
2023/12/11 13:25:15;;;;;;;101.70;9.13;;;;;;;;;;5071931;28;20364;-41
2023/12/11 13:27:46;;;;;;;107.30;9.45;;;;;;;;;;5072122;28;20376;-41
2023/12/11 13:30:14;;;;;;;105.50;8.88;;;;;;;;;;5071818;28;20398;-41
2023/12/11 13:32:41;;;;;;;88.28;8.40;;;;;;;;;;5071594;28;20933;-41
2023/12/11 13:35:09;;;;;;;94.57;9.52;;;;;;;;;;5071766;28;20368;-41
2023/12/11 13:37:37;;;;;;;87.55;8.63;;;;;;;;;;5053854;28;20387;-41
2023/12/11 13:40:05;;;;;;;81.18;9.23;;;;;;;;;;5071513;28;20435;-41
2023/12/11 13:42:31;;;;;;;96.47;9.18;;;;;;;;;;5071732;28;20778;-41
2023/12/11 13:44:59;;;;;;;81.32;7.75;;;;;;;;;;5071527;28;20372;-41
2023/12/11 13:47:26;;;;;;;91.65;8.45;;;;;;;;;;5071525;28;20402;-41
2023/12/11 13:49:53;;;;;;;82.10;8.57;;;;;;;;;;5071420;28;20952;-41
2023/12/11 13:52:20;;;;;;;79.80;8.23;;;;;;;;;;5071602;28;20447;-41
2023/12/11 13:54:47;;;;;;;83.78;7.75;;;;;;;;;;5071437;28;20371;-41
2023/12/11 13:57:14;;;;;;;81.45;7.18;;;;;;;;;;5071317;28;20380;-41
2023/12/11 13:59:41;;;;;;;72.28;7.20;;;;;;;;;;5071268;28;20407;-41
2023/12/11 14:02:08;;;;;;;73.05;7.00;;;;;;;;;;5071347;28;20869;-41
2023/12/11 14:04:36;;;;;;;55.60;6.93;;;;;;;;;;5071289;28;20914;-41
2023/12/11 14:07:03;;;;;;;66.70;6.65;;;;;;;;;;5070884;28;20380;-39
2023/12/11 14:09:32;;;;;;;64.72;6.57;;;;;;;;;;5065687;28;20380;-42
2023/12/11 14:12:00;;;;;;;57.70;5.13;;;;;;;;;;5069031;28;20392;-43
2023/12/11 14:14:27;;;;;;;54.73;5.50;;;;;;;;;;5070833;28;20364;-42
2023/12/11 14:16:54;;;;;;;53.53;5.18;;;;;;;;;;5070578;28;20441;-41
2023/12/11 14:19:21;;;;;;;48.30;4.90;;;;;;;;;;5070665;28;20403;-42
2023/12/11 14:21:47;;;;;;;45.70;4.75;;;;;;;;;;5069421;28;20379;-41
2023/12/11 14:24:14;;;;;;;49.63;5.15;;;;;;;;;;5070848;28;20403;-40
2023/12/11 14:26:42;;;;;;;42.67;4.72;;;;;;;;;;5070485;28;20767;-40
2023/12/11 14:29:09;;;;;;;52.60;5.37;;;;;;;;;;5070821;28;20383;-43
2023/12/11 14:31:36;;;;;;;45.73;4.73;;;;;;;;;;5068476;28;20478;-42
2023/12/11 14:34:03;;;;;;;52.28;4.40;;;;;;;;;;5069293;28;20573;-42
2023/12/11 14:36:30;;;;;;;40.70;4.63;;;;;;;;;;5069184;28;20395;-39